createdAt,value
2018-08-09T00:00:55.104Z,7.23
2018-08-09T00:03:24.760Z,8.20
2018-08-09T00:05:53.647Z,7.40
2018-08-09T00:08:22.527Z,9.23
2018-08-09T00:10:51.699Z,7.93
2018-08-09T00:13:20.879Z,8.63
2018-08-09T00:15:49.781Z,7.87
2018-08-09T00:18:19.049Z,9.10
2018-08-09T00:20:48.253Z,8.20
2018-08-09T00:23:17.129Z,8.50
2018-08-09T00:25:46.267Z,8.50
2018-08-09T00:28:15.147Z,8.47
2018-08-09T00:30:44.015Z,8.80
2018-08-09T00:33:13.139Z,8.63
2018-08-09T00:35:42.044Z,8.67
2018-08-09T00:38:10.964Z,8.67
2018-08-09T00:40:39.842Z,9.23
2018-08-09T00:43:08.764Z,8.80
2018-08-09T00:45:37.636Z,8.60
2018-08-09T00:48:06.815Z,8.87
2018-08-09T00:50:35.846Z,8.70
2018-08-09T00:53:04.717Z,8.60
2018-08-09T00:55:33.870Z,8.63
2018-08-09T00:58:02.769Z,8.67
2018-08-09T01:00:31.654Z,9.47
2018-08-09T01:03:00.524Z,9.13
2018-08-09T01:05:29.444Z,8.60
2018-08-09T01:07:58.321Z,8.73
2018-08-09T01:10:27.495Z,9.47
2018-08-09T01:12:56.959Z,9.20
2018-08-09T01:15:26.097Z,9.33
2018-08-09T01:17:55.010Z,9.73
2018-08-09T01:20:23.967Z,9.63
2018-08-09T01:22:52.843Z,9.30
2018-08-09T01:25:22.162Z,10.20
2018-08-09T01:27:51.066Z,9.07
2018-08-09T01:30:20.180Z,9.93
2018-08-09T01:32:49.305Z,9.60
2018-08-09T01:35:18.183Z,9.50
2018-08-09T01:37:47.361Z,10.03
2018-08-09T01:40:16.494Z,10.33
2018-08-09T01:42:56.890Z,9.93
2018-08-09T01:45:25.986Z,10.13
2018-08-09T01:47:55.187Z,10.87
2018-08-09T01:50:24.167Z,11.13
2018-08-09T01:52:53.311Z,11.30
2018-08-09T01:55:22.198Z,10.00
2018-08-09T01:57:51.089Z,11.00
2018-08-09T02:00:20.356Z,10.87
2018-08-09T02:02:49.282Z,10.80
2018-08-09T02:05:18.179Z,11.63
2018-08-09T02:07:47.538Z,10.83
2018-08-09T02:10:16.527Z,11.20
2018-08-09T02:12:45.422Z,10.67
2018-08-09T02:15:14.339Z,11.37
2018-08-09T02:17:43.479Z,11.70
2018-08-09T02:20:12.613Z,12.00
2018-08-09T02:22:41.803Z,11.50
2018-08-09T02:25:11.236Z,12.00
2018-08-09T02:27:40.606Z,12.23
2018-08-09T02:30:09.514Z,11.60
2018-08-09T02:32:38.431Z,11.80
2018-08-09T02:35:07.345Z,12.60
2018-08-09T02:37:36.274Z,12.90
2018-08-09T02:40:05.523Z,12.43
2018-08-09T02:42:34.408Z,12.60
2018-08-09T02:45:03.287Z,12.30
2018-08-09T02:47:32.446Z,12.43
2018-08-09T02:50:01.442Z,14.03
2018-08-09T02:52:30.538Z,12.90
2018-08-09T02:54:59.939Z,13.30
2018-08-09T02:57:28.804Z,13.00
2018-08-09T02:59:57.810Z,13.10
2018-08-09T03:02:26.716Z,12.70
2018-08-09T03:04:55.585Z,13.53
2018-08-09T03:07:24.699Z,13.70
2018-08-09T03:09:54.130Z,13.30
2018-08-09T03:12:23.034Z,12.83
2018-08-09T03:14:52.187Z,13.53
2018-08-09T03:17:21.144Z,11.63
2018-08-09T03:19:50.283Z,13.37
2018-08-09T03:22:19.226Z,12.87
2018-08-09T03:24:48.389Z,12.63
2018-08-09T03:27:17.501Z,13.50
2018-08-09T03:29:46.416Z,13.40
2018-08-09T03:32:15.895Z,14.13
2018-08-09T03:34:44.811Z,13.80
2018-08-09T03:37:13.790Z,13.50
2018-08-09T03:39:42.725Z,13.67
2018-08-09T03:42:11.632Z,14.17
2018-08-09T03:44:40.826Z,14.33
2018-08-09T03:47:10.266Z,17.57
2018-08-09T03:49:39.184Z,14.47
2018-08-09T03:52:08.490Z,13.60
2018-08-09T03:54:37.399Z,13.57
2018-08-09T03:57:06.328Z,13.13
2018-08-09T03:59:35.634Z,14.30
2018-08-09T04:02:04.507Z,13.70
2018-08-09T04:04:33.369Z,12.70
2018-08-09T04:07:02.305Z,13.43
2018-08-09T04:09:31.185Z,14.07
2018-08-09T04:12:00.407Z,14.00
2018-08-09T04:14:29.523Z,14.07
2018-08-09T04:16:58.647Z,14.00
2018-08-09T04:19:27.538Z,14.80
2018-08-09T04:21:56.468Z,13.50
2018-08-09T04:24:25.863Z,13.80
2018-08-09T04:26:54.834Z,13.97
2018-08-09T04:29:23.751Z,12.40
2018-08-09T04:31:52.656Z,14.03
2018-08-09T04:34:21.622Z,13.17
2018-08-09T04:36:50.566Z,16.27
2018-08-09T04:39:19.495Z,13.37
2018-08-09T04:41:48.415Z,12.90
2018-08-09T04:44:17.302Z,13.00
2018-08-09T04:46:46.244Z,12.37
2018-08-09T04:49:15.320Z,12.83
2018-08-09T04:51:44.303Z,13.20
2018-08-09T04:54:13.367Z,14.00
2018-08-09T04:56:42.330Z,13.20
2018-08-09T04:59:11.186Z,13.80
2018-08-09T05:01:40.106Z,13.63
2018-08-09T05:04:09.374Z,12.40
2018-08-09T05:06:38.509Z,10.93
2018-08-09T05:09:09.034Z,11.93
2018-08-09T05:11:37.992Z,11.43
2018-08-09T05:14:06.883Z,9.63
2018-08-09T05:16:36.287Z,10.30
2018-08-09T05:19:05.722Z,10.40
2018-08-09T05:21:34.603Z,10.33
2018-08-09T05:24:03.533Z,9.20
2018-08-09T05:26:32.790Z,10.00
2018-08-09T05:29:01.981Z,8.10
2018-08-09T05:31:30.904Z,9.60
2018-08-09T05:33:59.829Z,8.03
2018-08-09T05:36:29.017Z,8.90
2018-08-09T05:38:58.179Z,7.93
2018-08-09T05:41:27.479Z,9.40
2018-08-09T05:43:56.875Z,7.27
2018-08-09T05:46:26.046Z,8.03
2018-08-09T05:48:54.929Z,7.60
2018-08-09T05:51:23.827Z,7.77
2018-08-09T05:53:52.706Z,7.87
2018-08-09T05:56:21.823Z,8.30
2018-08-09T05:58:50.734Z,7.67
2018-08-09T06:01:19.620Z,8.10
2018-08-09T06:03:48.522Z,7.20
2018-08-09T06:06:17.707Z,6.93
2018-08-09T06:08:46.581Z,6.77
2018-08-09T06:11:15.457Z,6.77
2018-08-09T06:13:45.163Z,6.47
2018-08-09T06:16:14.025Z,7.60
2018-08-09T06:18:43.060Z,8.03
2018-08-09T06:21:12.280Z,7.90
2018-08-09T06:23:41.982Z,7.23
2018-08-09T06:26:10.883Z,7.30
2018-08-09T06:28:39.818Z,6.80
2018-08-09T06:31:08.690Z,7.53
2018-08-09T06:33:37.585Z,7.37
2018-08-09T06:36:06.502Z,6.95
2018-08-09T06:38:35.408Z,6.93
2018-08-09T06:41:05.203Z,5.93
2018-08-09T06:43:34.607Z,7.40
2018-08-09T06:46:03.527Z,6.20
2018-08-09T06:48:33.350Z,6.27
2018-08-09T06:51:02.336Z,6.13
2018-08-09T06:53:31.238Z,6.13
2018-08-09T06:56:00.139Z,6.60
2018-08-09T06:58:29.332Z,6.70
2018-08-09T07:00:58.583Z,6.80
2018-08-09T07:03:27.544Z,6.57
2018-08-09T07:05:56.675Z,6.40
2018-08-09T07:08:25.587Z,5.90
2018-08-09T07:10:55.211Z,7.07
2018-08-09T07:13:24.198Z,6.03
2018-08-09T07:15:53.136Z,5.90
2018-08-09T07:18:22.046Z,6.00
2018-08-09T07:20:51.629Z,6.53
2018-08-09T07:23:20.655Z,6.60
2018-08-09T07:25:49.789Z,6.20
2018-08-09T07:28:18.700Z,6.33
2018-08-09T07:30:47.591Z,6.23
2018-08-09T07:33:16.483Z,5.70
2018-08-09T07:35:45.420Z,5.70
2018-08-09T07:38:14.570Z,6.00
2018-08-09T07:40:43.928Z,5.73
2018-08-09T07:43:13.348Z,5.80
2018-08-09T07:45:43.232Z,6.57
2018-08-09T07:48:12.154Z,5.83
2018-08-09T07:50:41.119Z,6.97
2018-08-09T07:53:10.474Z,7.20
2018-08-09T07:55:39.666Z,7.00
2018-08-09T07:58:08.889Z,7.30
2018-08-09T08:00:37.764Z,6.60
2018-08-09T08:03:07.717Z,6.30
2018-08-09T08:05:38.196Z,6.60
2018-08-09T08:08:07.087Z,7.00
2018-08-09T08:10:35.996Z,7.37
2018-08-09T08:13:05.182Z,7.50
2018-08-09T08:15:34.084Z,7.40
2018-08-09T08:18:02.962Z,7.30
2018-08-09T08:20:31.917Z,7.10
2018-08-09T08:23:00.857Z,7.80
2018-08-09T08:25:29.740Z,7.40
2018-08-09T08:27:58.668Z,7.53
2018-08-09T08:30:27.571Z,6.90
2018-08-09T08:32:56.524Z,7.67
2018-08-09T08:35:26.296Z,6.80
2018-08-09T08:37:55.258Z,7.30
2018-08-09T08:40:24.174Z,6.40
2018-08-09T08:42:53.578Z,5.73
2018-08-09T08:45:22.506Z,7.43
2018-08-09T08:47:51.456Z,8.30
2018-08-09T08:50:20.384Z,7.83
2018-08-09T08:52:49.299Z,8.20
2018-08-09T08:55:18.233Z,5.90
2018-08-09T08:57:47.107Z,7.40
2018-08-09T09:00:16.134Z,6.87
2018-08-09T09:02:45.037Z,7.30
2018-08-09T09:05:14.026Z,7.50
2018-08-09T09:07:43.190Z,7.20
2018-08-09T09:10:13.211Z,7.27
2018-08-09T09:12:42.412Z,7.30
2018-08-09T09:15:13.871Z,7.73
2018-08-09T09:17:43.565Z,7.17
2018-08-09T09:20:16.776Z,7.50
2018-08-09T09:22:47.649Z,8.87
2018-08-09T09:25:16.603Z,6.70
2018-08-09T09:27:45.749Z,7.77
2018-08-09T09:30:17.114Z,7.10
2018-08-09T09:32:46.684Z,7.20
2018-08-09T09:35:15.642Z,7.93
2018-08-09T09:37:45.238Z,7.20
2018-08-09T09:40:14.382Z,8.13
2018-08-09T09:42:43.272Z,6.97
2018-08-09T09:45:12.187Z,7.43
2018-08-09T09:47:41.230Z,6.57
2018-08-09T09:50:11.043Z,7.20
2018-08-09T09:52:40.038Z,7.63
2018-08-09T09:55:09.323Z,7.00
2018-08-09T09:57:38.521Z,7.17
2018-08-09T10:00:12.628Z,7.03
2018-08-09T10:02:41.587Z,6.83
2018-08-09T10:05:10.546Z,6.40
2018-08-09T10:07:41.855Z,7.00
2018-08-09T10:10:14.140Z,7.63
2018-08-09T10:12:43.407Z,7.07
2018-08-09T10:15:12.941Z,7.97
2018-08-09T10:17:42.117Z,8.57
2018-08-09T10:20:11.103Z,7.37
2018-08-09T10:22:40.342Z,7.43
2018-08-09T10:25:09.263Z,7.77
2018-08-09T10:27:38.276Z,7.30
2018-08-09T10:30:08.734Z,6.73
2018-08-09T10:32:38.140Z,7.60
2018-08-09T10:35:07.498Z,7.53
2018-08-09T10:37:36.440Z,7.77
2018-08-09T10:40:05.540Z,7.83
2018-08-09T10:42:36.638Z,7.43
2018-08-09T10:45:05.556Z,6.10
2018-08-09T10:47:34.451Z,7.20
2018-08-09T10:50:03.608Z,7.57
2018-08-09T10:52:33.170Z,7.70
2018-08-09T10:55:03.174Z,7.30
2018-08-09T10:57:32.055Z,8.30
2018-08-09T11:00:00.947Z,7.50
2018-08-09T11:02:30.823Z,8.03
2018-08-09T11:05:00.062Z,7.00
2018-08-09T11:07:29.152Z,7.37
2018-08-09T11:09:58.236Z,7.77
2018-08-09T11:12:27.363Z,7.07
2018-08-09T11:14:56.572Z,7.70
2018-08-09T11:17:26.523Z,8.07
2018-08-09T11:19:55.920Z,8.17
2018-08-09T11:22:27.450Z,7.77
2018-08-09T11:24:58.796Z,8.00
2018-08-09T11:27:30.208Z,8.20
2018-08-09T11:29:59.306Z,7.60
2018-08-09T11:32:29.021Z,7.57
2018-08-09T11:34:57.923Z,8.03
2018-08-09T11:37:26.874Z,7.23
2018-08-09T11:39:55.927Z,7.70
2018-08-09T11:42:26.890Z,7.90
2018-08-09T11:44:56.137Z,8.17
2018-08-09T11:47:25.546Z,8.20
2018-08-09T11:49:54.435Z,9.30
2018-08-09T11:52:23.364Z,7.67
2018-08-09T11:54:52.588Z,7.30
2018-08-09T11:57:21.461Z,7.97
2018-08-09T11:59:50.680Z,7.53
2018-08-09T12:02:20.016Z,7.83
2018-08-09T12:04:49.361Z,8.10
2018-08-09T12:07:18.259Z,7.30
2018-08-09T12:09:47.442Z,7.07
2018-08-09T12:12:16.655Z,7.40
2018-08-09T12:14:45.558Z,8.20
2018-08-09T12:17:14.914Z,8.03
2018-08-09T12:19:44.080Z,8.10
2018-08-09T12:22:12.977Z,8.37
2018-08-09T12:24:42.677Z,8.70
2018-08-09T12:27:11.642Z,9.10
2018-08-09T12:29:41.447Z,8.63
2018-08-09T12:32:10.583Z,8.90
2018-08-09T12:34:39.515Z,9.33
2018-08-09T12:37:08.455Z,8.80
2018-08-09T12:39:37.418Z,8.53
2018-08-09T12:42:06.380Z,8.57
2018-08-09T12:44:35.314Z,8.50
2018-08-09T12:47:04.305Z,8.07
2018-08-09T12:49:33.458Z,7.60
2018-08-09T12:52:02.344Z,6.90
2018-08-09T12:54:31.229Z,7.17
2018-08-09T12:57:00.246Z,7.67
2018-08-09T12:59:29.515Z,8.53
2018-08-09T13:01:58.442Z,7.93
2018-08-09T13:04:27.376Z,7.70
2018-08-09T13:06:56.291Z,7.53
2018-08-09T13:09:25.441Z,6.90
2018-08-09T13:11:54.338Z,6.83
2018-08-09T13:14:23.288Z,7.07
2018-08-09T13:16:52.735Z,6.50
2018-08-09T13:19:21.627Z,7.30
2018-08-09T13:21:51.073Z,7.00
2018-08-09T13:24:20.190Z,6.90
2018-08-09T13:26:49.084Z,6.87
2018-08-09T13:29:18.007Z,6.40
2018-08-09T13:31:46.968Z,6.70
2018-08-09T13:34:15.912Z,6.90
2018-08-09T13:36:44.820Z,6.20
2018-08-09T13:39:14.750Z,5.80
2018-08-09T13:41:44.898Z,5.97
2018-08-09T13:44:14.155Z,5.73
2018-08-09T13:46:43.745Z,6.07
2018-08-09T13:49:12.645Z,6.50
2018-08-09T13:51:41.808Z,6.47
2018-08-09T13:54:10.714Z,6.90
2018-08-09T13:56:39.581Z,7.00
2018-08-09T13:59:08.511Z,6.60
2018-08-09T14:01:37.397Z,6.30
2018-08-09T14:04:06.355Z,6.80
2018-08-09T14:06:35.999Z,6.30
2018-08-09T14:09:09.531Z,6.57
2018-08-09T14:11:39.245Z,6.93
2018-08-09T14:14:08.744Z,6.40
2018-08-09T14:16:38.316Z,6.47
2018-08-09T14:19:07.622Z,6.47
2018-08-09T14:21:36.609Z,6.37
2018-08-09T14:24:05.599Z,6.07
2018-08-09T14:26:34.567Z,6.60
2018-08-09T14:29:03.463Z,6.73
2018-08-09T14:31:32.353Z,7.10
2018-08-09T14:34:01.583Z,6.60
2018-08-09T14:36:30.496Z,7.20
2018-08-09T14:38:59.487Z,7.17
2018-08-09T14:41:28.410Z,6.60
2018-08-09T14:43:57.294Z,6.77
2018-08-09T14:46:26.211Z,6.87
2018-08-09T14:48:55.095Z,7.00
2018-08-09T14:51:24.263Z,6.43
2018-08-09T14:53:53.205Z,6.83
2018-08-09T14:56:22.211Z,6.33
2018-08-09T14:58:51.190Z,7.10
2018-08-09T15:01:20.420Z,7.10
2018-08-09T15:03:49.832Z,6.87
2018-08-09T15:06:18.888Z,6.67
2018-08-09T15:08:48.091Z,7.00
2018-08-09T15:11:16.976Z,6.90
2018-08-09T15:13:46.179Z,7.97
2018-08-09T15:16:15.303Z,6.67
2018-08-09T15:18:44.344Z,7.03
2018-08-09T15:21:13.254Z,7.27
2018-08-09T15:23:42.155Z,7.40
2018-08-09T15:26:11.025Z,6.80
2018-08-09T15:28:40.180Z,7.40
2018-08-09T15:31:09.093Z,7.40
2018-08-09T15:33:38.475Z,7.17
2018-08-09T15:36:07.405Z,6.90
2018-08-09T15:38:36.283Z,7.50
2018-08-09T15:41:05.273Z,7.23
2018-08-09T15:43:34.159Z,7.73
2018-08-09T15:46:03.043Z,6.73
2018-08-09T15:48:32.356Z,7.63
2018-08-09T15:51:01.312Z,6.77
2018-08-09T15:53:30.472Z,7.93
2018-08-09T15:55:59.405Z,7.77
2018-08-09T15:58:28.336Z,7.33
2018-08-09T16:00:57.246Z,7.20
2018-08-09T16:03:26.418Z,7.87
2018-08-09T16:05:55.311Z,7.63
2018-08-09T16:08:24.660Z,7.77
2018-08-09T16:10:53.837Z,7.50
2018-08-09T16:13:22.712Z,7.60
2018-08-09T16:15:51.603Z,7.30
2018-08-09T16:18:20.920Z,6.77
2018-08-09T16:20:49.898Z,7.53
2018-08-09T16:23:19.114Z,7.13
2018-08-09T16:25:48.004Z,7.60
2018-08-09T16:28:16.902Z,7.53
2018-08-09T16:30:45.868Z,8.20
2018-08-09T16:33:14.830Z,7.10
2018-08-09T16:35:43.769Z,7.23
2018-08-09T16:38:12.964Z,7.23
2018-08-09T16:40:41.884Z,6.90
2018-08-09T16:43:10.778Z,7.17
2018-08-09T16:45:39.735Z,7.70
2018-08-09T16:48:09.099Z,7.77
2018-08-09T16:50:38.544Z,7.80
2018-08-09T16:53:08.379Z,7.90
2018-08-09T16:55:37.294Z,7.70
2018-08-09T16:58:06.232Z,8.00
2018-08-09T17:00:35.387Z,7.90
2018-08-09T17:03:04.995Z,8.93
2018-08-09T17:05:33.884Z,8.60
2018-08-09T17:08:02.851Z,7.63
2018-08-09T17:10:31.763Z,8.30
2018-08-09T17:13:01.043Z,7.70
2018-08-09T17:15:30.044Z,8.30
2018-08-09T17:17:59.295Z,7.50
2018-08-09T17:20:29.941Z,8.17
2018-08-09T17:22:59.852Z,7.90
2018-08-09T17:25:28.809Z,7.13
2018-08-09T17:27:57.653Z,7.00
2018-08-09T17:30:27.601Z,7.57
2018-08-09T17:32:57.436Z,7.80
2018-08-09T17:35:26.361Z,7.90
2018-08-09T17:37:55.298Z,8.00
2018-08-09T17:40:26.618Z,8.23
2018-08-09T17:42:56.389Z,8.10
2018-08-09T17:45:26.886Z,7.83
2018-08-09T17:47:55.806Z,8.47
2018-08-09T17:50:24.802Z,7.03
2018-08-09T17:52:54.611Z,7.70
2018-08-09T17:55:23.505Z,8.40
2018-08-09T17:57:52.748Z,7.87
2018-08-09T18:00:24.407Z,7.70
2018-08-09T18:02:54.007Z,7.57
2018-08-09T18:05:22.928Z,8.30
2018-08-09T18:07:52.309Z,8.27
2018-08-09T18:10:23.442Z,8.03
2018-08-09T18:12:52.382Z,7.70
2018-08-09T18:15:22.418Z,8.70
2018-08-09T18:17:51.872Z,9.27
2018-08-09T18:20:22.203Z,9.30
2018-08-09T18:22:51.131Z,9.50
2018-08-09T18:25:20.325Z,8.50
2018-08-09T18:27:49.251Z,9.00
2018-08-09T18:30:19.274Z,8.63
2018-08-09T18:32:48.224Z,8.53
2018-08-09T18:35:18.398Z,8.43
2018-08-09T18:37:47.296Z,8.33
2018-08-09T18:40:22.303Z,8.40
2018-08-09T18:42:51.244Z,7.70
2018-08-09T18:45:20.630Z,7.87
2018-08-09T18:47:49.599Z,8.40
2018-08-09T18:50:19.900Z,8.00
2018-08-09T18:52:48.871Z,8.53
2018-08-09T18:55:18.967Z,8.33
2018-08-09T18:57:48.046Z,8.07
2018-08-09T19:00:19.039Z,8.30
2018-08-09T19:02:48.737Z,8.37
2018-08-09T19:05:17.713Z,8.67
2018-08-09T19:07:46.719Z,8.53
2018-08-09T19:10:17.974Z,9.30
2018-08-09T19:12:46.881Z,8.87
2018-08-09T19:15:16.002Z,8.93
2018-08-09T19:17:44.918Z,8.67
2018-08-09T19:20:20.048Z,8.43
2018-08-09T19:22:48.939Z,8.90
2018-08-09T19:25:18.687Z,9.03
2018-08-09T19:27:48.605Z,9.17
2018-08-09T19:30:19.867Z,9.40
2018-08-09T19:32:50.073Z,8.63
2018-08-09T19:35:21.016Z,9.20
2018-08-09T19:37:50.907Z,8.60
2018-08-09T19:40:22.750Z,8.90
2018-08-09T19:42:52.071Z,9.17
2018-08-09T19:45:21.175Z,9.13
2018-08-09T19:47:50.256Z,8.73
2018-08-09T19:50:20.522Z,9.70
2018-08-09T19:52:49.469Z,8.43
2018-08-09T19:55:22.183Z,7.43
2018-08-09T19:57:51.567Z,6.67
2018-08-09T20:00:23.412Z,6.63
2018-08-09T20:02:53.375Z,6.30
2018-08-09T20:05:22.678Z,6.53
2018-08-09T20:07:52.835Z,6.70
2018-08-09T20:10:21.760Z,6.80
2018-08-09T20:12:50.681Z,7.30
2018-08-09T20:15:21.069Z,6.90
2018-08-09T20:17:50.102Z,9.20
2018-08-09T20:20:21.669Z,6.80
2018-08-09T20:22:50.703Z,6.87
2018-08-09T20:25:19.610Z,6.80
2018-08-09T20:27:48.716Z,6.83
2018-08-09T20:30:18.326Z,8.00
2018-08-09T20:32:47.621Z,6.70
2018-08-09T20:35:19.935Z,7.03
2018-08-09T20:37:49.382Z,7.00
2018-08-09T20:40:19.232Z,7.00
2018-08-09T20:42:49.340Z,6.53
2018-08-09T20:45:19.849Z,7.93
2018-08-09T20:47:48.860Z,8.00
2018-08-09T20:50:19.459Z,8.48
2018-08-09T20:52:49.341Z,8.83
2018-08-09T20:55:18.283Z,8.70
2018-08-09T20:57:54.748Z,10.60
2018-08-09T21:00:25.669Z,11.70
2018-08-09T21:02:56.193Z,11.10
2018-08-09T21:05:26.774Z,9.70
2018-08-09T21:07:56.269Z,8.90
2018-08-09T21:10:25.838Z,8.60
2018-08-09T21:12:54.838Z,8.00
2018-08-09T21:15:23.869Z,9.50
2018-08-09T21:17:52.871Z,8.60
2018-08-09T21:20:21.944Z,8.30
2018-08-09T21:22:51.323Z,8.80
2018-08-09T21:25:20.277Z,8.10
2018-08-09T21:27:49.835Z,8.17
2018-08-09T21:30:20.043Z,8.87
2018-08-09T21:32:49.450Z,9.30
2018-08-09T21:35:18.616Z,8.07
2018-08-09T21:37:48.039Z,8.30
2018-08-09T21:40:17.249Z,8.90
2018-08-09T21:45:21.617Z,7.47
2018-08-09T21:47:50.510Z,7.27
2018-08-09T21:50:20.895Z,7.40
2018-08-09T21:52:49.981Z,7.50
2018-08-09T21:55:19.191Z,16.03
2018-08-09T21:57:48.785Z,9.00
2018-08-09T22:00:27.471Z,8.10
2018-08-09T22:02:57.970Z,7.70
2018-08-09T22:05:32.387Z,7.90
2018-08-09T22:08:06.782Z,9.03
2018-08-09T22:10:41.158Z,7.93
2018-08-09T22:13:15.624Z,8.60
2018-08-09T22:15:49.902Z,7.87
2018-08-09T22:18:24.395Z,8.60
2018-08-09T22:20:59.793Z,8.50
2018-08-09T22:23:28.717Z,11.47
2018-08-09T22:25:57.662Z,12.17
2018-08-09T22:28:26.572Z,8.03
2018-08-09T22:30:55.531Z,9.73
2018-08-09T22:33:24.413Z,8.73
2018-08-09T22:35:53.274Z,7.67
2018-08-09T22:38:22.173Z,6.87
2018-08-09T22:40:51.135Z,7.10
2018-08-09T22:43:20.026Z,6.87
2018-08-09T22:45:50.319Z,6.73
2018-08-09T22:48:19.197Z,7.70
2018-08-09T22:50:48.144Z,7.23
2018-08-09T22:53:17.634Z,7.40
2018-08-09T22:55:50.245Z,7.60
2018-08-09T22:58:19.183Z,8.20
2018-08-09T23:00:48.100Z,8.23
2018-08-09T23:03:17.250Z,7.37
2018-08-09T23:05:46.123Z,7.87
2018-08-09T23:08:15.776Z,7.80
2018-08-09T23:10:45.355Z,8.00
2018-08-09T23:13:15.191Z,7.13
2018-08-09T23:15:45.018Z,7.03
2018-08-09T23:18:13.981Z,6.67
2018-08-09T23:20:42.947Z,7.40
2018-08-09T23:23:11.836Z,7.50
2018-08-09T23:25:40.698Z,7.20
2018-08-09T23:28:09.567Z,6.67
2018-08-09T23:30:38.459Z,6.20
2018-08-09T23:33:07.366Z,6.43
2018-08-09T23:35:36.251Z,5.80
2018-08-09T23:38:05.162Z,5.77
2018-08-09T23:40:34.035Z,5.77
2018-08-09T23:43:02.926Z,5.80
2018-08-09T23:45:31.811Z,5.83
2018-08-09T23:48:00.685Z,5.03
2018-08-09T23:50:29.603Z,6.20
2018-08-09T23:52:58.501Z,6.33
2018-08-09T23:55:27.394Z,5.80
2018-08-09T23:57:56.281Z,6.40
